Time;durP1;ratioP1;P1;durP2;ratioP2;P2;SDS_P1;SDS_P2;PMS_P1;PMS_P2;Temp;Humidity;BMP_temperature;BMP_pressure;BME280_temperature;BME280_humidity;BME280_pressure;Samples;Min_cycle;Max_cycle;Signal;HPM_P1;HPM_P2
2024/01/29 00:01:48;;;;;;;5.90;4.40;;;5.60;99.90;;;;;;5072423;28;20094;-88
2024/01/29 00:04:13;;;;;;;6.30;4.33;;;5.60;99.90;;;;;;5067963;28;20535;-88
2024/01/29 00:06:39;;;;;;;5.13;3.97;;;5.50;99.90;;;;;;5069560;28;20510;-87
2024/01/29 00:09:05;;;;;;;5.33;4.00;;;5.60;99.90;;;;;;5070630;28;20342;-88
2024/01/29 00:11:33;;;;;;;6.57;4.70;;;5.50;99.90;;;;;;5068627;28;20041;-88
2024/01/29 00:13:59;;;;;;;4.57;3.93;;;5.50;99.90;;;;;;5070758;28;20041;-86
2024/01/29 00:16:25;;;;;;;6.77;4.90;;;5.50;99.90;;;;;;5071662;28;20041;-89
2024/01/29 00:18:50;;;;;;;5.80;4.53;;;5.40;99.90;;;;;;5068458;28;20114;-88
2024/01/29 00:21:16;;;;;;;6.47;4.47;;;5.40;99.90;;;;;;5072973;28;20045;-89
2024/01/29 00:23:42;;;;;;;6.43;4.73;;;5.40;99.90;;;;;;5069286;28;20044;-87
2024/01/29 00:26:08;;;;;;;6.23;4.57;;;5.40;99.90;;;;;;5068835;28;20048;-86
2024/01/29 00:28:34;;;;;;;7.33;4.73;;;5.30;99.90;;;;;;5068814;28;20035;-87
2024/01/29 00:30:59;;;;;;;6.03;4.37;;;5.40;99.90;;;;;;5068044;28;20417;-88
2024/01/29 00:33:25;;;;;;;6.50;4.30;;;5.30;99.90;;;;;;5030476;28;20135;-88
2024/01/29 00:35:51;;;;;;;6.30;4.60;;;5.30;99.90;;;;;;5069174;28;20087;-89
2024/01/29 00:38:16;;;;;;;6.97;4.60;;;5.30;99.90;;;;;;5068082;28;20083;-88
2024/01/29 00:40:42;;;;;;;6.10;4.57;;;5.30;99.90;;;;;;5070669;28;20047;-87
2024/01/29 00:43:08;;;;;;;5.03;4.40;;;5.30;99.90;;;;;;5073002;28;20036;-87
2024/01/29 00:45:33;;;;;;;5.33;4.30;;;5.30;99.90;;;;;;5066073;28;20037;-87
2024/01/29 00:47:59;;;;;;;8.27;4.33;;;5.30;99.90;;;;;;5072726;28;20067;-87
2024/01/29 00:50:25;;;;;;;6.97;4.83;;;5.30;99.90;;;;;;5069562;28;20036;-87
2024/01/29 00:52:51;;;;;;;5.87;4.53;;;5.30;99.90;;;;;;5069208;28;20067;-88
2024/01/29 00:55:16;;;;;;;8.20;5.03;;;5.30;99.90;;;;;;5072099;28;20067;-88
2024/01/29 00:57:42;;;;;;;6.23;4.47;;;5.30;99.90;;;;;;5072437;28;20105;-88
2024/01/29 01:00:09;;;;;;;8.67;4.90;;;5.30;99.90;;;;;;5067862;28;20041;-87
2024/01/29 01:02:35;;;;;;;7.33;4.70;;;5.30;99.90;;;;;;5052940;28;20056;-88
2024/01/29 01:05:01;;;;;;;7.67;4.70;;;5.30;99.90;;;;;;5070884;28;20076;-88
2024/01/29 01:07:27;;;;;;;6.80;5.20;;;5.20;99.90;;;;;;5067869;28;20446;-88
2024/01/29 01:09:53;;;;;;;8.23;5.13;;;5.20;99.90;;;;;;5053736;28;20059;-86
2024/01/29 01:12:19;;;;;;;4.80;4.30;;;5.20;99.90;;;;;;5070763;28;20490;-84
2024/01/29 01:14:44;;;;;;;6.07;4.60;;;5.20;99.90;;;;;;5068793;28;20020;-86
2024/01/29 01:17:10;;;;;;;6.43;4.80;;;5.20;99.90;;;;;;5068778;28;20570;-87
2024/01/29 01:19:36;;;;;;;7.27;4.87;;;5.20;99.90;;;;;;5067726;28;20087;-89
2024/01/29 01:22:01;;;;;;;5.17;4.67;;;5.10;99.90;;;;;;5072895;28;20044;-88
2024/01/29 01:24:27;;;;;;;6.10;4.90;;;5.10;99.90;;;;;;5067289;28;20056;-88
2024/01/29 01:26:53;;;;;;;6.53;4.60;;;5.20;99.90;;;;;;5070669;28;20037;-88
2024/01/29 01:29:18;;;;;;;6.43;5.00;;;5.10;99.90;;;;;;5069888;28;20044;-88
2024/01/29 01:31:44;;;;;;;7.17;5.17;;;5.00;99.90;;;;;;5067761;28;20229;-88
2024/01/29 01:34:10;;;;;;;7.47;4.97;;;5.00;99.90;;;;;;5068162;28;20100;-89
2024/01/29 01:36:36;;;;;;;6.33;4.97;;;5.00;99.90;;;;;;5070180;28;20080;-89
2024/01/29 01:39:01;;;;;;;7.60;5.07;;;4.90;99.90;;;;;;5074616;28;20507;-88
2024/01/29 01:41:27;;;;;;;7.17;5.53;;;5.00;99.90;;;;;;5076282;28;20040;-88
2024/01/29 01:43:53;;;;;;;6.00;4.77;;;4.90;99.90;;;;;;5071235;28;20519;-87
2024/01/29 01:46:25;;;;;;;6.00;4.93;;;4.90;99.90;;;;;;5072495;28;20046;-88
2024/01/29 01:48:53;;;;;;;7.45;5.10;;;4.90;99.90;;;;;;5075644;28;20366;-86
2024/01/29 01:51:22;;;;;;;6.40;4.77;;;4.90;99.90;;;;;;5073137;28;20037;-87
2024/01/29 01:53:54;;;;;;;6.97;5.07;;;5.00;99.90;;;;;;5069354;28;20056;-87
2024/01/29 01:56:20;;;;;;;6.65;4.90;;;5.00;99.90;;;;;;5072833;28;20598;-87
2024/01/29 01:58:46;;;;;;;6.60;4.90;;;4.90;99.90;;;;;;5072372;28;20049;-88
2024/01/29 02:01:14;;;;;;;7.27;4.90;;;4.90;99.90;;;;;;5070839;28;20049;-88
2024/01/29 02:03:40;;;;;;;7.40;5.10;;;4.90;99.90;;;;;;5072515;28;20066;-88
2024/01/29 02:06:07;;;;;;;7.60;5.17;;;4.90;99.90;;;;;;5072896;28;20068;-88
2024/01/29 02:08:33;;;;;;;7.10;5.00;;;4.80;99.90;;;;;;5073333;28;20127;-87
2024/01/29 02:11:01;;;;;;;5.87;5.10;;;4.80;99.90;;;;;;5071294;28;20041;-87
2024/01/29 02:13:27;;;;;;;6.83;5.20;;;4.80;99.90;;;;;;5074914;28;20078;-87
2024/01/29 02:15:53;;;;;;;7.50;5.37;;;4.80;99.90;;;;;;5075139;28;20567;-88
2024/01/29 02:18:18;;;;;;;6.93;4.67;;;4.80;99.90;;;;;;5073103;28;20036;-87
2024/01/29 02:20:44;;;;;;;7.53;5.50;;;4.80;99.90;;;;;;5070553;28;20045;-87
2024/01/29 02:23:10;;;;;;;7.80;5.93;;;4.80;99.90;;;;;;5070291;28;20076;-87
2024/01/29 02:25:36;;;;;;;8.63;5.80;;;4.70;99.90;;;;;;5071718;28;20319;-87
2024/01/29 02:28:01;;;;;;;7.23;5.20;;;4.70;99.90;;;;;;5070527;28;20045;-88
2024/01/29 02:30:27;;;;;;;7.40;5.73;;;4.70;99.90;;;;;;5055306;28;20131;-87
2024/01/29 02:32:53;;;;;;;7.83;5.30;;;4.70;99.90;;;;;;5051150;28;20049;-87
2024/01/29 02:35:19;;;;;;;6.70;5.50;;;4.60;99.90;;;;;;5054702;28;20108;-87
2024/01/29 02:37:44;;;;;;;6.93;5.80;;;4.60;99.90;;;;;;5039140;28;20054;-88
2024/01/29 02:40:10;;;;;;;7.80;5.87;;;4.60;99.90;;;;;;5071336;28;20460;-89
2024/01/29 02:42:36;;;;;;;7.23;5.47;;;4.50;99.90;;;;;;5068356;28;20055;-87
2024/01/29 02:45:04;;;;;;;8.13;5.63;;;4.50;99.90;;;;;;5070287;28;20055;-87
2024/01/29 02:47:29;;;;;;;8.07;6.03;;;4.50;99.90;;;;;;5069464;28;20379;-88
2024/01/29 02:49:55;;;;;;;8.33;5.70;;;4.40;99.90;;;;;;5069521;28;20067;-88
2024/01/29 02:52:21;;;;;;;8.03;5.83;;;4.40;99.90;;;;;;5070042;28;20048;-86
2024/01/29 02:54:47;;;;;;;7.30;5.90;;;4.40;99.90;;;;;;5073173;28;20047;-89
2024/01/29 02:57:13;;;;;;;7.63;5.33;;;4.40;99.90;;;;;;5068476;28;20052;-87
2024/01/29 02:59:39;;;;;;;8.93;6.07;;;4.40;99.90;;;;;;5071654;28;20054;-86
2024/01/29 03:02:06;;;;;;;8.83;5.70;;;4.30;99.90;;;;;;5069528;28;20040;-87
2024/01/29 03:04:32;;;;;;;9.53;6.93;;;4.30;99.90;;;;;;5063117;28;20041;-87
2024/01/29 03:06:57;;;;;;;7.57;5.77;;;4.20;99.90;;;;;;5067728;28;20099;-87
2024/01/29 03:09:23;;;;;;;6.50;5.57;;;4.10;99.90;;;;;;5068765;28;20045;-87
2024/01/29 03:11:49;;;;;;;8.13;6.00;;;4.00;99.90;;;;;;5072431;28;20040;-87
2024/01/29 03:14:14;;;;;;;8.73;5.90;;;4.00;99.90;;;;;;5067175;28;20140;-87
2024/01/29 03:16:40;;;;;;;6.47;5.43;;;4.00;99.90;;;;;;5071299;28;20044;-88
2024/01/29 03:19:07;;;;;;;7.07;5.70;;;3.90;99.90;;;;;;5069258;28;20044;-88
2024/01/29 03:21:33;;;;;;;6.40;5.80;;;3.90;99.90;;;;;;5071165;28;20041;-88
2024/01/29 03:23:59;;;;;;;8.90;6.00;;;4.00;99.90;;;;;;5052732;28;20048;-87
2024/01/29 03:26:25;;;;;;;7.23;5.97;;;3.90;99.90;;;;;;5073036;28;20131;-87
2024/01/29 03:28:51;;;;;;;8.07;6.03;;;4.00;99.90;;;;;;5067655;28;20041;-88
2024/01/29 03:31:17;;;;;;;7.87;5.70;;;3.90;99.90;;;;;;5071051;28;20076;-85
2024/01/29 03:33:42;;;;;;;6.53;5.70;;;3.90;99.90;;;;;;5070255;28;20044;-88
2024/01/29 03:36:08;;;;;;;6.67;5.90;;;3.90;99.90;;;;;;5070363;28;20033;-88
2024/01/29 03:38:34;;;;;;;9.00;6.37;;;3.90;99.90;;;;;;5069582;28;20539;-88
2024/01/29 03:41:00;;;;;;;7.23;6.13;;;3.90;99.90;;;;;;5071973;28;20044;-89
2024/01/29 03:43:26;;;;;;;6.93;5.80;;;3.80;99.90;;;;;;5070677;28;20044;-89
2024/01/29 03:45:55;;;;;;;9.73;6.20;;;3.80;99.90;;;;;;5069048;28;20478;-88
2024/01/29 03:48:21;;;;;;;7.33;6.13;;;3.80;99.90;;;;;;5069041;28;20083;-89
2024/01/29 03:50:46;;;;;;;6.73;5.73;;;3.80;99.90;;;;;;5067758;28;20033;-88
2024/01/29 03:53:12;;;;;;;8.10;5.80;;;3.80;99.90;;;;;;5069578;28;20078;-89
2024/01/29 03:55:38;;;;;;;8.23;5.97;;;3.80;99.90;;;;;;5071234;28;20127;-88
2024/01/29 03:58:04;;;;;;;9.87;6.20;;;3.80;99.90;;;;;;5070081;28;20048;-88
2024/01/29 04:00:30;;;;;;;6.53;5.33;;;3.70;99.90;;;;;;5072047;28;20109;-86
2024/01/29 04:02:59;;;;;;;8.80;6.00;;;3.70;99.90;;;;;;5069862;28;20044;-88
2024/01/29 04:05:25;;;;;;;9.13;6.10;;;3.60;99.90;;;;;;5068281;28;20052;-87
2024/01/29 04:07:51;;;;;;;7.40;5.73;;;3.60;99.90;;;;;;5062323;28;20048;-88
2024/01/29 04:10:17;;;;;;;7.20;5.77;;;3.60;99.90;;;;;;5069493;28;20694;-87
2024/01/29 04:12:43;;;;;;;6.67;5.97;;;3.60;99.90;;;;;;5071033;28;20088;-89
2024/01/29 04:15:09;;;;;;;7.03;5.83;;;3.60;99.90;;;;;;5069285;28;20037;-87
2024/01/29 04:17:35;;;;;;;11.97;6.60;;;3.60;99.90;;;;;;5052226;28;20072;-89
2024/01/29 04:20:02;;;;;;;7.97;6.03;;;3.60;99.90;;;;;;5072978;28;20040;-88
2024/01/29 04:22:28;;;;;;;8.73;6.23;;;3.60;99.90;;;;;;5072790;28;20559;-88
2024/01/29 04:24:54;;;;;;;7.90;5.90;;;3.50;99.90;;;;;;5048301;28;20079;-88
2024/01/29 04:27:19;;;;;;;8.73;6.50;;;3.50;99.90;;;;;;5069791;28;20040;-88
2024/01/29 04:29:45;;;;;;;7.20;6.03;;;3.50;99.90;;;;;;5068372;28;20048;-89
2024/01/29 04:32:11;;;;;;;8.67;6.33;;;3.50;99.90;;;;;;5066868;28;20044;-89
2024/01/29 04:34:36;;;;;;;9.13;6.33;;;3.50;99.90;;;;;;5053554;28;20044;-88
2024/01/29 04:37:02;;;;;;;9.43;6.40;;;3.50;99.90;;;;;;5069563;28;20052;-87
2024/01/29 04:39:28;;;;;;;8.87;6.60;;;3.50;99.90;;;;;;5058996;28;20051;-88
2024/01/29 04:41:53;;;;;;;7.00;6.00;;;3.50;99.90;;;;;;5068636;28;20051;-88
2024/01/29 04:44:19;;;;;;;8.20;6.30;;;3.40;99.90;;;;;;5069104;28;20056;-88
2024/01/29 04:46:45;;;;;;;7.67;6.47;;;3.40;99.90;;;;;;5052899;28;20048;-86
2024/01/29 04:49:10;;;;;;;9.27;6.10;;;3.40;99.90;;;;;;5066759;28;20063;-87
2024/01/29 04:51:37;;;;;;;7.87;6.80;;;3.40;99.90;;;;;;5068666;28;20072;-87
2024/01/29 04:54:03;;;;;;;9.57;7.23;;;3.50;99.90;;;;;;5051430;28;20044;-87
2024/01/29 04:56:29;;;;;;;7.57;6.33;;;3.50;99.90;;;;;;5069336;28;20052;-86
2024/01/29 04:58:54;;;;;;;7.80;6.70;;;3.50;99.90;;;;;;5066370;28;20060;-85
2024/01/29 05:01:20;;;;;;;9.77;6.80;;;3.60;99.90;;;;;;5070582;28;20048;-87
2024/01/29 05:03:47;;;;;;;7.63;6.30;;;3.50;99.90;;;;;;5067340;28;20036;-89
2024/01/29 05:06:13;;;;;;;10.23;6.83;;;3.60;99.90;;;;;;5071856;28;20551;-87
2024/01/29 05:08:39;;;;;;;8.27;6.70;;;3.60;99.90;;;;;;5069240;28;20055;-87
2024/01/29 05:11:05;;;;;;;9.07;7.27;;;3.60;99.90;;;;;;5067557;28;20070;-88
2024/01/29 05:13:30;;;;;;;11.23;6.50;;;3.60;99.90;;;;;;5070747;28;20044;-89
2024/01/29 05:15:56;;;;;;;8.57;6.70;;;3.70;99.90;;;;;;5069118;28;20044;-88
2024/01/29 05:18:22;;;;;;;9.80;6.80;;;3.60;99.90;;;;;;5068204;28;20051;-86
2024/01/29 05:20:48;;;;;;;9.20;7.07;;;3.70;99.90;;;;;;5069092;28;20078;-86
2024/01/29 05:23:13;;;;;;;9.67;6.83;;;3.70;99.90;;;;;;5066950;28;20104;-88
2024/01/29 05:25:39;;;;;;;9.53;6.67;;;3.70;99.90;;;;;;5067144;28;20048;-88
2024/01/29 05:28:05;;;;;;;8.77;7.20;;;3.70;99.90;;;;;;5070101;28;20039;-88
2024/01/29 05:30:31;;;;;;;8.77;6.83;;;3.60;99.90;;;;;;5066791;28;20032;-88
2024/01/29 05:32:56;;;;;;;9.33;6.83;;;3.60;99.90;;;;;;5048792;28;20052;-87
2024/01/29 05:35:22;;;;;;;10.50;7.00;;;3.60;99.90;;;;;;5050865;28;20156;-88
2024/01/29 05:37:48;;;;;;;10.97;7.43;;;3.60;99.90;;;;;;5069199;28;20040;-87
2024/01/29 05:40:14;;;;;;;9.30;6.80;;;3.50;99.90;;;;;;5047617;28;20084;-87
2024/01/29 05:42:39;;;;;;;9.87;7.43;;;3.50;99.90;;;;;;5071860;28;20044;-86
2024/01/29 05:45:06;;;;;;;9.07;7.40;;;3.40;99.90;;;;;;5070908;28;20095;-86
2024/01/29 05:47:32;;;;;;;9.77;7.40;;;3.40;99.90;;;;;;5068347;28;20042;-87
2024/01/29 05:49:58;;;;;;;8.00;7.07;;;3.40;99.90;;;;;;5069916;28;20479;-87
2024/01/29 05:52:23;;;;;;;7.07;6.37;;;3.50;99.90;;;;;;5067084;28;20049;-84
2024/01/29 05:54:49;;;;;;;9.80;6.50;;;3.50;99.90;;;;;;5067907;28;20132;-84
2024/01/29 05:57:17;;;;;;;8.97;6.47;;;3.50;99.90;;;;;;5066845;28;20194;-88
2024/01/29 05:59:43;;;;;;;8.03;7.00;;;3.50;99.90;;;;;;5069295;28;20040;-86
2024/01/29 06:02:09;;;;;;;10.07;7.27;;;3.50;99.90;;;;;;5068483;28;20036;-86
2024/01/29 06:04:34;;;;;;;9.50;7.00;;;3.50;99.90;;;;;;5067430;28;20048;-88
2024/01/29 06:07:00;;;;;;;9.27;6.90;;;3.50;99.90;;;;;;5070567;28;20059;-88
2024/01/29 06:09:26;;;;;;;9.27;6.97;;;3.60;99.90;;;;;;5054222;28;20053;-87
2024/01/29 06:11:53;;;;;;;8.17;7.30;;;3.50;99.90;;;;;;5047889;28;20071;-89
2024/01/29 06:14:19;;;;;;;9.90;7.03;;;3.50;99.90;;;;;;5066034;28;20083;-87
2024/01/29 06:16:45;;;;;;;10.17;7.00;;;3.50;99.90;;;;;;5068139;28;20045;-86
2024/01/29 06:19:15;;;;;;;8.97;7.00;;;3.50;99.90;;;;;;5048319;28;20075;-88
2024/01/29 06:21:44;;;;;;;8.37;6.73;;;3.50;99.90;;;;;;5066660;28;20040;-88
2024/01/29 06:24:10;;;;;;;8.20;6.93;;;3.60;99.90;;;;;;5069207;28;20080;-87
2024/01/29 06:26:37;;;;;;;10.10;7.07;;;3.60;99.90;;;;;;5049675;28;20037;-87
2024/01/29 06:29:06;;;;;;;9.27;7.23;;;3.60;99.90;;;;;;5070203;28;20632;-86
2024/01/29 06:31:32;;;;;;;9.43;6.93;;;3.70;99.90;;;;;;5050683;28;20401;-88
2024/01/29 06:33:57;;;;;;;9.20;7.27;;;3.70;99.90;;;;;;5074528;28;20532;-87
2024/01/29 06:36:23;;;;;;;9.17;7.00;;;3.70;99.90;;;;;;5072708;28;20052;-86
2024/01/29 06:38:49;;;;;;;9.10;7.33;;;3.70;99.90;;;;;;5067692;28;20526;-86
2024/01/29 06:41:25;;;;;;;10.73;7.53;;;3.70;99.90;;;;;;5069620;28;20053;-87
2024/01/29 06:43:52;;;;;;;9.73;7.70;;;3.70;99.90;;;;;;5070509;28;20530;-86
2024/01/29 06:46:17;;;;;;;9.97;7.10;;;3.70;99.90;;;;;;5062974;28;20083;-87
2024/01/29 06:48:44;;;;;;;9.57;7.47;;;3.60;99.90;;;;;;5065653;28;20045;-86
2024/01/29 06:51:09;;;;;;;11.57;7.20;;;3.60;99.90;;;;;;5068022;28;20051;-88
2024/01/29 06:53:36;;;;;;;9.60;7.30;;;3.60;99.90;;;;;;5065777;28;20060;-85
2024/01/29 06:56:04;;;;;;;10.00;7.30;;;3.60;99.90;;;;;;5065797;28;20041;-83
2024/01/29 06:58:37;;;;;;;8.87;7.20;;;3.60;99.90;;;;;;5070494;28;20458;-81
2024/01/29 07:01:03;;;;;;;7.90;7.03;;;3.60;99.90;;;;;;5068627;28;20049;-81
2024/01/29 07:03:29;;;;;;;9.17;8.03;;;3.60;99.90;;;;;;5070178;28;20114;-81
2024/01/29 07:05:56;;;;;;;9.07;7.70;;;3.50;99.90;;;;;;5071108;28;20044;-81
2024/01/29 07:08:22;;;;;;;13.23;7.60;;;3.50;99.90;;;;;;5071031;28;20078;-80
2024/01/29 07:10:48;;;;;;;9.17;7.70;;;3.50;99.90;;;;;;5070266;28;20104;-81
2024/01/29 07:13:13;;;;;;;9.53;7.03;;;3.50;99.90;;;;;;5072348;28;20040;-81
2024/01/29 07:15:40;;;;;;;11.83;8.07;;;3.50;99.90;;;;;;5071892;28;20123;-82
2024/01/29 07:18:06;;;;;;;9.10;7.33;;;3.50;99.90;;;;;;5071323;28;20041;-81
2024/01/29 07:20:38;;;;;;;9.53;7.47;;;3.40;99.90;;;;;;5069380;28;20079;-80
2024/01/29 07:23:08;;;;;;;8.85;7.70;;;3.50;99.90;;;;;;5069269;28;20051;-81
2024/01/29 07:25:40;;;;;;;10.60;7.90;;;3.50;99.90;;;;;;5071294;28;20059;-82
2024/01/29 07:28:06;;;;;;;10.30;7.45;;;3.50;99.90;;;;;;5069387;28;20074;-81
2024/01/29 07:30:33;;;;;;;9.67;7.57;;;3.50;99.90;;;;;;5071454;28;20446;-82
2024/01/29 07:32:59;;;;;;;10.43;7.70;;;3.50;99.90;;;;;;5068584;28;20082;-81
2024/01/29 07:35:26;;;;;;;10.63;8.20;;;3.50;99.90;;;;;;5072798;28;20048;-81
2024/01/29 07:37:52;;;;;;;10.47;7.43;;;3.50;99.90;;;;;;5071176;28;20052;-80
2024/01/29 07:40:19;;;;;;;9.47;7.53;;;3.60;99.90;;;;;;5064772;28;20059;-84
2024/01/29 07:42:46;;;;;;;10.87;8.27;;;3.60;99.90;;;;;;5066918;28;20037;-84
2024/01/29 07:45:12;;;;;;;10.27;7.70;;;3.60;99.90;;;;;;5055875;28;20049;-84
2024/01/29 07:47:38;;;;;;;11.07;8.07;;;3.60;99.90;;;;;;5074955;28;20040;-84
2024/01/29 07:50:04;;;;;;;10.83;8.40;;;3.60;99.90;;;;;;5072848;28;20039;-84
2024/01/29 07:52:30;;;;;;;11.40;7.97;;;3.60;99.90;;;;;;5068813;28;20519;-83
2024/01/29 07:54:55;;;;;;;11.23;8.60;;;3.70;99.90;;;;;;5058651;28;20032;-84
2024/01/29 07:57:21;;;;;;;12.93;8.33;;;3.70;99.90;;;;;;5069315;28;20115;-84
2024/01/29 07:59:47;;;;;;;8.60;7.30;;;3.80;99.90;;;;;;5069325;28;20088;-85
2024/01/29 08:02:13;;;;;;;10.67;7.50;;;3.80;99.90;;;;;;5060275;28;20263;-85
2024/01/29 08:04:38;;;;;;;13.40;8.57;;;3.80;99.90;;;;;;5059530;28;20056;-84
2024/01/29 08:07:04;;;;;;;10.57;8.17;;;3.90;99.90;;;;;;5063789;28;20060;-83
2024/01/29 08:09:30;;;;;;;9.23;8.23;;;4.00;99.90;;;;;;5070770;28;20127;-85
2024/01/29 08:11:56;;;;;;;11.33;8.33;;;4.00;99.90;;;;;;5065531;28;20524;-84
2024/01/29 08:14:22;;;;;;;11.90;8.37;;;4.10;99.90;;;;;;5072838;28;20048;-86
2024/01/29 08:16:48;;;;;;;8.97;8.07;;;4.10;99.90;;;;;;5063575;28;20057;-85
2024/01/29 08:19:13;;;;;;;9.63;8.00;;;4.20;99.90;;;;;;5065020;28;20056;-85
2024/01/29 08:21:39;;;;;;;9.33;7.93;;;4.20;99.90;;;;;;5066830;28;20052;-84
2024/01/29 08:24:05;;;;;;;11.57;8.30;;;4.20;99.90;;;;;;5073086;28;20041;-84
2024/01/29 08:26:31;;;;;;;11.27;8.43;;;4.30;99.90;;;;;;5057937;28;20041;-84
2024/01/29 08:28:58;;;;;;;9.47;8.00;;;4.40;99.90;;;;;;5070243;28;20061;-84
2024/01/29 08:31:26;;;;;;;10.27;7.83;;;4.40;99.90;;;;;;5070268;28;20044;-85
2024/01/29 08:33:52;;;;;;;9.67;7.83;;;4.50;99.90;;;;;;5074840;28;20038;-86
2024/01/29 08:36:21;;;;;;;10.90;8.33;;;4.60;99.90;;;;;;5069730;28;20068;-84
2024/01/29 08:38:47;;;;;;;9.90;8.10;;;4.60;99.90;;;;;;5072518;28;20060;-86
2024/01/29 08:41:16;;;;;;;10.50;7.97;;;4.80;99.90;;;;;;5068801;28;20567;-84
2024/01/29 08:43:41;;;;;;;13.73;8.57;;;4.90;99.90;;;;;;5070106;28;20419;-84
2024/01/29 08:46:07;;;;;;;13.90;8.57;;;5.00;99.90;;;;;;5069201;28;20482;-85
2024/01/29 08:48:33;;;;;;;10.10;7.97;;;5.10;99.90;;;;;;5063575;28;20048;-84
2024/01/29 08:50:59;;;;;;;10.57;8.93;;;5.20;99.90;;;;;;5074045;28;20051;-85
2024/01/29 08:53:27;;;;;;;11.70;8.60;;;5.20;99.90;;;;;;5068367;28;20063;-83
2024/01/29 08:55:53;;;;;;;10.40;8.23;;;5.30;99.90;;;;;;5067202;28;20088;-83
2024/01/29 08:58:19;;;;;;;9.17;8.03;;;5.40;99.90;;;;;;5060177;28;20063;-83
2024/01/29 09:00:45;;;;;;;10.43;8.07;;;5.50;99.90;;;;;;5074437;28;20535;-85
2024/01/29 09:03:11;;;;;;;12.47;9.03;;;5.50;99.90;;;;;;5072228;28;20445;-84
2024/01/29 09:05:38;;;;;;;10.23;8.83;;;5.60;99.90;;;;;;5072900;28;20032;-85
2024/01/29 09:08:05;;;;;;;10.40;8.70;;;5.60;99.90;;;;;;5073829;28;20107;-84
2024/01/29 09:10:31;;;;;;;10.50;8.47;;;5.60;99.90;;;;;;5054266;28;20145;-84
2024/01/29 09:12:56;;;;;;;12.40;8.73;;;5.70;99.90;;;;;;5067858;28;20127;-84
2024/01/29 09:15:22;;;;;;;9.73;8.73;;;5.70;99.90;;;;;;5062181;28;20056;-85
2024/01/29 09:17:48;;;;;;;13.67;8.97;;;5.80;99.90;;;;;;5071334;28;20044;-85
2024/01/29 09:20:14;;;;;;;13.30;9.43;;;5.90;99.90;;;;;;5062037;28;20078;-83
2024/01/29 09:22:39;;;;;;;12.57;9.40;;;6.00;99.90;;;;;;5066240;28;20088;-84
2024/01/29 09:25:07;;;;;;;11.73;9.17;;;6.00;99.90;;;;;;5063331;28;20040;-84
2024/01/29 09:27:33;;;;;;;11.90;9.30;;;6.10;99.90;;;;;;5064772;28;20424;-84
2024/01/29 09:29:59;;;;;;;11.20;9.00;;;6.10;99.90;;;;;;5074219;28;20143;-85
2024/01/29 09:32:25;;;;;;;12.50;9.47;;;6.20;99.90;;;;;;5064752;28;20084;-83
2024/01/29 09:34:50;;;;;;;13.63;9.20;;;6.40;99.90;;;;;;5064733;28;20044;-85
2024/01/29 09:37:19;;;;;;;13.00;8.87;;;6.50;99.90;;;;;;5065395;28;20040;-86
2024/01/29 09:39:45;;;;;;;12.93;9.37;;;6.60;99.90;;;;;;5063413;28;20053;-84
2024/01/29 09:42:16;;;;;;;13.37;9.47;;;6.60;99.90;;;;;;5055353;28;20041;-84
2024/01/29 09:44:44;;;;;;;13.03;9.47;;;6.80;99.90;;;;;;5064979;28;20381;-86
2024/01/29 09:47:12;;;;;;;12.00;9.87;;;6.80;99.90;;;;;;5065889;28;20052;-85
2024/01/29 09:49:37;;;;;;;13.37;9.90;;;6.90;99.90;;;;;;5063539;28;20060;-84
2024/01/29 09:52:04;;;;;;;15.60;9.77;;;7.00;99.90;;;;;;5055219;28;20055;-84
2024/01/29 09:54:31;;;;;;;12.83;9.90;;;7.10;99.90;;;;;;5070889;28;20059;-84
2024/01/29 09:56:57;;;;;;;13.17;9.47;;;7.20;99.90;;;;;;5070327;28;20084;-85
2024/01/29 09:59:23;;;;;;;12.10;9.87;;;7.20;99.90;;;;;;5068754;28;20133;-84
2024/01/29 10:01:49;;;;;;;13.67;10.57;;;7.30;99.90;;;;;;5066621;28;20045;-84
2024/01/29 10:04:15;;;;;;;10.73;9.57;;;7.30;99.90;;;;;;5070538;28;20052;-84
2024/01/29 10:06:41;;;;;;;12.07;10.00;;;7.40;99.90;;;;;;5074036;28;20039;-84
2024/01/29 10:09:08;;;;;;;13.20;10.47;;;7.40;99.90;;;;;;5066694;28;20040;-84
2024/01/29 10:11:36;;;;;;;11.60;9.27;;;7.50;99.90;;;;;;5063532;28;20120;-81
2024/01/29 10:14:02;;;;;;;13.23;9.97;;;7.50;99.90;;;;;;5067441;28;20090;-84
2024/01/29 10:16:28;;;;;;;13.23;10.37;;;7.60;99.90;;;;;;5064769;28;20048;-86
2024/01/29 10:19:01;;;;;;;12.90;10.13;;;7.60;99.90;;;;;;5064955;28;20080;-84
2024/01/29 10:21:32;;;;;;;14.33;10.00;;;7.70;99.90;;;;;;5072142;28;20045;-86
2024/01/29 10:23:58;;;;;;;14.37;10.83;;;7.70;99.90;;;;;;5074545;28;20075;-84
2024/01/29 10:26:25;;;;;;;13.67;10.60;;;7.70;99.90;;;;;;5066180;28;20041;-85
2024/01/29 10:29:22;;;;;;;13.23;10.47;;;7.80;99.90;;;;;;5066541;28;20617;-85
2024/01/29 10:31:48;;;;;;;12.70;10.13;;;7.80;99.90;;;;;;5067819;28;20060;-84
2024/01/29 10:34:14;;;;;;;14.50;10.97;;;7.80;99.90;;;;;;5059569;28;20133;-84
2024/01/29 10:36:40;;;;;;;14.63;11.13;;;7.80;99.90;;;;;;5071851;28;20537;-84
2024/01/29 10:39:07;;;;;;;13.50;10.80;;;7.90;99.90;;;;;;5057199;28;20052;-84
2024/01/29 10:41:35;;;;;;;13.40;10.70;;;7.90;99.90;;;;;;5065452;28;20063;-83
2024/01/29 10:44:04;;;;;;;14.03;11.00;;;8.00;99.90;;;;;;5068629;28;20041;-84
2024/01/29 10:46:34;;;;;;;15.60;10.90;;;8.00;99.90;;;;;;5069299;28;20060;-83
2024/01/29 10:49:01;;;;;;;15.57;11.07;;;8.10;99.90;;;;;;5064819;28;20048;-83
2024/01/29 10:51:30;;;;;;;13.87;11.37;;;8.20;99.90;;;;;;5076619;28;20087;-84
2024/01/29 10:53:56;;;;;;;12.73;11.30;;;8.20;99.90;;;;;;5067169;28;20052;-83
2024/01/29 10:56:22;;;;;;;13.77;11.27;;;8.20;99.90;;;;;;5069678;28;20057;-86
2024/01/29 10:58:52;;;;;;;15.17;11.00;;;8.30;99.90;;;;;;5072605;28;20053;-84
2024/01/29 11:01:18;;;;;;;13.47;10.40;;;8.30;99.90;;;;;;5065248;28;20052;-84
2024/01/29 11:03:45;;;;;;;12.60;10.90;;;8.30;99.90;;;;;;5074883;28;20412;-84
2024/01/29 11:06:24;;;;;;;14.10;11.10;;;8.40;99.90;;;;;;5060494;28;20041;-84
2024/01/29 11:08:55;;;;;;;13.10;11.70;;;8.40;99.90;;;;;;5070214;28;20041;-83
2024/01/29 11:11:23;;;;;;;13.77;11.25;;;8.40;99.90;;;;;;5064031;28;20088;-84
2024/01/29 11:13:49;;;;;;;15.97;11.47;;;8.40;99.90;;;;;;5071081;28;20094;-83
2024/01/29 11:16:15;;;;;;;16.00;11.77;;;8.40;99.90;;;;;;5068399;28;20040;-84
2024/01/29 11:18:42;;;;;;;13.50;11.40;;;8.50;99.90;;;;;;5075821;28;20211;-85
2024/01/29 11:21:14;;;;;;;14.77;10.93;;;8.60;99.90;;;;;;5065595;28;20047;-85
2024/01/29 11:23:46;;;;;;;14.15;10.98;;;8.60;99.90;;;;;;5064851;28;20053;-84
2024/01/29 11:26:16;;;;;;;12.63;11.10;;;8.70;99.90;;;;;;5074554;28;20086;-85
2024/01/29 11:28:42;;;;;;;18.47;12.87;;;8.70;99.90;;;;;;5071835;28;20102;-84
2024/01/29 11:31:12;;;;;;;14.83;12.30;;;8.70;99.90;;;;;;5071143;28;20041;-84
2024/01/29 11:33:39;;;;;;;15.23;11.80;;;8.80;99.90;;;;;;5068933;28;20082;-84
2024/01/29 11:36:12;;;;;;;14.43;12.03;;;8.80;99.90;;;;;;5070900;28;20037;-84
2024/01/29 11:38:39;;;;;;;15.23;12.47;;;8.80;99.90;;;;;;5071362;28;20102;-83
2024/01/29 11:41:05;;;;;;;14.63;12.10;;;8.90;99.90;;;;;;5067094;28;20041;-83
2024/01/29 11:43:32;;;;;;;14.40;12.37;;;8.90;99.90;;;;;;5074084;28;20064;-84
2024/01/29 11:45:58;;;;;;;15.20;11.60;;;9.00;99.90;;;;;;5066757;28;20637;-85
2024/01/29 11:48:24;;;;;;;15.80;12.00;;;9.00;99.90;;;;;;5075381;28;20092;-84
2024/01/29 11:50:53;;;;;;;14.47;12.50;;;9.00;99.90;;;;;;5067121;28;20068;-83
2024/01/29 11:53:20;;;;;;;14.87;12.33;;;9.10;99.90;;;;;;5064503;28;20049;-83
2024/01/29 11:55:47;;;;;;;15.13;12.57;;;9.20;99.90;;;;;;5067627;28;20052;-85
2024/01/29 11:58:18;;;;;;;16.20;12.20;;;9.30;99.90;;;;;;5065183;28;20056;-84
2024/01/29 12:00:45;;;;;;;15.67;13.10;;;9.30;99.90;;;;;;5072913;28;20060;-83
2024/01/29 12:03:14;;;;;;;20.33;13.30;;;9.40;99.90;;;;;;5060144;28;20087;-84
2024/01/29 12:05:40;;;;;;;24.00;13.40;;;9.40;99.90;;;;;;5068213;28;20043;-84
2024/01/29 12:08:17;;;;;;;19.03;12.57;;;9.40;99.90;;;;;;5066982;28;20041;-85
2024/01/29 12:10:44;;;;;;;19.07;12.87;;;9.40;99.90;;;;;;5066889;28;20675;-83
2024/01/29 12:13:14;;;;;;;19.07;13.23;;;9.40;99.90;;;;;;5065026;28;20041;-85
2024/01/29 12:15:40;;;;;;;15.60;12.33;;;9.40;99.90;;;;;;5069059;28;20052;-83
2024/01/29 12:18:09;;;;;;;16.43;12.57;;;9.40;99.90;;;;;;5066679;28;20041;-85
2024/01/29 12:20:37;;;;;;;16.50;12.50;;;9.40;99.90;;;;;;5069509;28;20044;-84
2024/01/29 12:23:04;;;;;;;16.03;13.10;;;9.40;99.90;;;;;;5063112;28;20394;-84
2024/01/29 12:25:30;;;;;;;14.70;13.10;;;9.40;99.90;;;;;;5075074;28;20047;-83
2024/01/29 12:28:09;;;;;;;17.03;13.20;;;9.40;99.90;;;;;;5071402;28;20088;-85
2024/01/29 12:30:35;;;;;;;18.00;13.57;;;9.40;99.90;;;;;;5075051;28;20041;-85
2024/01/29 12:33:02;;;;;;;16.27;13.47;;;9.40;99.90;;;;;;5063568;28;20033;-85
2024/01/29 12:35:30;;;;;;;17.83;13.13;;;9.40;99.90;;;;;;5066404;28;20259;-84
2024/01/29 12:38:06;;;;;;;19.80;13.93;;;9.40;99.90;;;;;;5069620;28;20086;-85
2024/01/29 12:40:32;;;;;;;18.90;14.73;;;9.40;99.90;;;;;;5056136;28;20064;-85
2024/01/29 12:43:06;;;;;;;23.90;15.37;;;9.30;99.90;;;;;;5068887;28;20055;-85
2024/01/29 12:45:33;;;;;;;22.53;15.03;;;9.30;99.90;;;;;;5064006;28;20083;-86
2024/01/29 12:48:10;;;;;;;21.80;15.27;;;9.30;99.90;;;;;;5066539;28;20052;-85